sensor_id;sensor_type;location;lat;lon;timestamp;pressure;altitude;pressure_sealevel;temperature;humidity
22580;BME280;11456;47.030;15.396;2023-05-01T00:01:07;97778.22;;;8.98;83.41
22580;BME280;11456;47.030;15.396;2023-05-01T00:03:33;97778.22;;;8.98;82.78
22580;BME280;11456;47.030;15.396;2023-05-01T00:06:01;97779.63;;;8.82;83.02
22580;BME280;11456;47.030;15.396;2023-05-01T00:08:28;97769.28;;;8.68;83.52
22580;BME280;11456;47.030;15.396;2023-05-01T00:10:54;97769.41;;;8.57;84.28
22580;BME280;11456;47.030;15.396;2023-05-01T00:13:21;97773.22;;;8.64;84.25
22580;BME280;11456;47.030;15.396;2023-05-01T00:15:49;97772.53;;;8.62;84.84
22580;BME280;11456;47.030;15.396;2023-05-01T00:18:16;97767.44;;;8.78;84.64
22580;BME280;11456;47.030;15.396;2023-05-01T00:20:43;97764.94;;;8.87;84.15
22580;BME280;11456;47.030;15.396;2023-05-01T00:23:09;97766.59;;;8.78;83.53
22580;BME280;11456;47.030;15.396;2023-05-01T00:25:37;97766.84;;;8.56;84.23
22580;BME280;11456;47.030;15.396;2023-05-01T00:28:04;97761.22;;;8.68;84.06
22580;BME280;11456;47.030;15.396;2023-05-01T00:30:32;97758.94;;;8.54;84.92
22580;BME280;11456;47.030;15.396;2023-05-01T00:32:59;97758.50;;;8.49;85.79
22580;BME280;11456;47.030;15.396;2023-05-01T00:35:27;97758.78;;;8.56;84.79
22580;BME280;11456;47.030;15.396;2023-05-01T00:37:54;97753.56;;;8.54;84.62
22580;BME280;11456;47.030;15.396;2023-05-01T00:40:21;97751.16;;;8.61;84.60
22580;BME280;11456;47.030;15.396;2023-05-01T00:42:48;97757.03;;;8.45;84.98
22580;BME280;11456;47.030;15.396;2023-05-01T00:45:14;97760.56;;;8.36;85.52
22580;BME280;11456;47.030;15.396;2023-05-01T00:47:41;97751.84;;;8.43;85.85
22580;BME280;11456;47.030;15.396;2023-05-01T00:50:08;97742.63;;;8.36;85.76
22580;BME280;11456;47.030;15.396;2023-05-01T00:52:35;97746.22;;;8.26;85.90
22580;BME280;11456;47.030;15.396;2023-05-01T00:55:02;97749.91;;;8.25;86.96
22580;BME280;11456;47.030;15.396;2023-05-01T00:57:31;97756.41;;;8.62;84.26
22580;BME280;11456;47.030;15.396;2023-05-01T00:59:57;97749.84;;;8.45;85.12
22580;BME280;11456;47.030;15.396;2023-05-01T01:02:24;97749.84;;;8.45;86.77
22580;BME280;11456;47.030;15.396;2023-05-01T01:04:52;97751.25;;;8.40;86.08
22580;BME280;11456;47.030;15.396;2023-05-01T01:07:28;97749.91;;;8.25;86.99
22580;BME280;11456;47.030;15.396;2023-05-01T01:17:29;97745.22;;;8.17;87.61
22580;BME280;11456;47.030;15.396;2023-05-01T01:22:23;97747.72;;;8.09;89.32
22580;BME280;11456;47.030;15.396;2023-05-01T01:32:55;97740.34;;;8.01;89.69
22580;BME280;11456;47.030;15.396;2023-05-01T01:35:27;97745.75;;;8.11;88.96
22580;BME280;11456;47.030;15.396;2023-05-01T01:38:01;97742.41;;;8.19;88.51
22580;BME280;11456;47.030;15.396;2023-05-01T01:40:37;97738.91;;;7.97;88.50
22580;BME280;11456;47.030;15.396;2023-05-01T01:43:05;97739.16;;;7.94;88.94
22580;BME280;11456;47.030;15.396;2023-05-01T01:45:35;97738.69;;;8.10;88.96
22580;BME280;11456;47.030;15.396;2023-05-01T01:48:02;97743.19;;;8.10;88.77
22580;BME280;11456;47.030;15.396;2023-05-01T01:50:31;97738.38;;;8.03;88.84
22580;BME280;11456;47.030;15.396;2023-05-01T01:52:59;97745.97;;;7.98;89.22
22580;BME280;11456;47.030;15.396;2023-05-01T01:55:28;97736.78;;;7.91;89.15
22580;BME280;11456;47.030;15.396;2023-05-01T01:57:55;97738.28;;;7.84;89.25
22580;BME280;11456;47.030;15.396;2023-05-01T02:00:23;97748.91;;;7.65;90.00
22580;BME280;11456;47.030;15.396;2023-05-01T02:02:50;97742.31;;;7.48;90.51
22580;BME280;11456;47.030;15.396;2023-05-01T02:05:18;97743.78;;;7.62;90.84
22580;BME280;11456;47.030;15.396;2023-05-01T02:07:46;97743.78;;;7.62;91.08
22580;BME280;11456;47.030;15.396;2023-05-01T02:10:15;97745.44;;;7.74;90.06
22580;BME280;11456;47.030;15.396;2023-05-01T02:12:47;97736.88;;;7.80;89.71
22580;BME280;11456;47.030;15.396;2023-05-01T02:15:14;97742.47;;;7.77;90.01
22580;BME280;11456;47.030;15.396;2023-05-01T02:17:41;97743.97;;;7.70;89.79
22580;BME280;11456;47.030;15.396;2023-05-01T02:20:09;97743.34;;;7.78;89.51
22580;BME280;11456;47.030;15.396;2023-05-01T02:22:38;97733.19;;;7.81;89.28
22580;BME280;11456;47.030;15.396;2023-05-01T02:25:06;97734.25;;;7.69;90.05
22580;BME280;11456;47.030;15.396;2023-05-01T02:27:35;97730.59;;;7.70;89.24
22580;BME280;11456;47.030;15.396;2023-05-01T02:30:03;97739.59;;;7.69;89.31
22580;BME280;11456;47.030;15.396;2023-05-01T02:32:31;97735.69;;;7.73;89.38
22580;BME280;11456;47.030;15.396;2023-05-01T02:34:57;97729.94;;;7.78;88.79
22580;BME280;11456;47.030;15.396;2023-05-01T02:37:25;97727.38;;;7.76;88.48
22580;BME280;11456;47.030;15.396;2023-05-01T02:39:53;97726.13;;;7.80;88.54
22580;BME280;11456;47.030;15.396;2023-05-01T02:42:20;97731.97;;;7.64;88.55
22580;BME280;11456;47.030;15.396;2023-05-01T02:45:01;97718.16;;;7.69;88.67
22580;BME280;11456;47.030;15.396;2023-05-01T02:47:30;97713.28;;;7.74;89.06
22580;BME280;11456;47.030;15.396;2023-05-01T02:49:58;97721.47;;;7.82;88.35
22580;BME280;11456;47.030;15.396;2023-05-01T02:52:25;97717.09;;;7.81;88.41
22580;BME280;11456;47.030;15.396;2023-05-01T02:55:04;97716.03;;;7.93;88.15
22580;BME280;11456;47.030;15.396;2023-05-01T02:57:31;97718.78;;;7.82;88.60
22580;BME280;11456;47.030;15.396;2023-05-01T02:59:58;97720.50;;;7.83;88.80
22580;BME280;11456;47.030;15.396;2023-05-01T03:02:24;97717.09;;;7.81;88.79
22580;BME280;11456;47.030;15.396;2023-05-01T03:04:51;97718.53;;;7.85;89.07
22580;BME280;11456;47.030;15.396;2023-05-01T03:07:17;97722.41;;;7.72;89.22
22580;BME280;11456;47.030;15.396;2023-05-01T03:09:44;97724.97;;;7.73;89.30
22580;BME280;11456;47.030;15.396;2023-05-01T03:12:11;97717.28;;;7.38;90.39
22580;BME280;11456;47.030;15.396;2023-05-01T03:14:37;97729.50;;;7.52;90.19
22580;BME280;11456;47.030;15.396;2023-05-01T03:17:04;97715.94;;;7.74;89.83
22580;BME280;11456;47.030;15.396;2023-05-01T03:19:30;97715.38;;;7.50;90.90
22580;BME280;11456;47.030;15.396;2023-05-01T03:21:57;97727.88;;;7.60;90.53
22580;BME280;11456;47.030;15.396;2023-05-01T03:24:24;97721.31;;;7.33;92.90
22580;BME280;11456;47.030;15.396;2023-05-01T03:26:50;97725.38;;;7.48;93.04
22580;BME280;11456;47.030;15.396;2023-05-01T03:29:17;97724.97;;;7.32;92.78
22580;BME280;11456;47.030;15.396;2023-05-01T03:31:43;97729.28;;;7.44;93.18
22580;BME280;11456;47.030;15.396;2023-05-01T03:34:10;97718.47;;;7.76;90.99
22580;BME280;11456;47.030;15.396;2023-05-01T03:36:37;97723.81;;;7.66;91.71
22580;BME280;11456;47.030;15.396;2023-05-01T03:39:04;97727.22;;;7.68;91.94
22580;BME280;11456;47.030;15.396;2023-05-01T03:41:54;97730.38;;;7.62;93.09
22580;BME280;11456;47.030;15.396;2023-05-01T03:44:24;97733.25;;;7.70;93.37
22580;BME280;11456;47.030;15.396;2023-05-01T03:46:50;97728.19;;;7.97;92.15
22580;BME280;11456;47.030;15.396;2023-05-01T03:49:22;97723.38;;;7.91;92.76
22580;BME280;11456;47.030;15.396;2023-05-01T03:51:49;97723.44;;;8.11;92.70
22580;BME280;11456;47.030;15.396;2023-05-01T03:54:17;97726.31;;;7.88;93.43
22580;BME280;11456;47.030;15.396;2023-05-01T03:57:07;97728.44;;;7.94;93.89
22580;BME280;11456;47.030;15.396;2023-05-01T03:59:34;97734.19;;;8.11;92.93
22580;BME280;11456;47.030;15.396;2023-05-01T04:02:01;97735.34;;;8.18;93.30
22580;BME280;11456;47.030;15.396;2023-05-01T04:04:31;97728.03;;;8.29;92.16
22580;BME280;11456;47.030;15.396;2023-05-01T04:06:58;97722.72;;;8.39;91.89
22580;BME280;11456;47.030;15.396;2023-05-01T04:09:25;97723.97;;;8.35;91.42
22580;BME280;11456;47.030;15.396;2023-05-01T04:11:52;97721.16;;;8.36;91.31
22580;BME280;11456;47.030;15.396;2023-05-01T04:14:18;97727.44;;;8.56;91.60
22580;BME280;11456;47.030;15.396;2023-05-01T04:16:45;97723.47;;;8.51;91.88
22580;BME280;11456;47.030;15.396;2023-05-01T04:19:12;97719.97;;;8.69;92.05
22580;BME280;11456;47.030;15.396;2023-05-01T04:21:44;97721.94;;;8.67;91.30
22580;BME280;11456;47.030;15.396;2023-05-01T04:24:11;97723.59;;;8.49;92.25
22580;BME280;11456;47.030;15.396;2023-05-01T04:26:38;97719.13;;;8.69;92.47
22580;BME280;11456;47.030;15.396;2023-05-01T04:29:05;97718.28;;;8.88;91.19
22580;BME280;11456;47.030;15.396;2023-05-01T04:31:32;97724.78;;;8.85;91.49
22580;BME280;11456;47.030;15.396;2023-05-01T04:34:00;97730.59;;;8.80;92.64
22580;BME280;11456;47.030;15.396;2023-05-01T04:36:26;97724.78;;;8.85;92.38
22580;BME280;11456;47.030;15.396;2023-05-01T04:38:53;97731.88;;;8.96;92.39
22580;BME280;11456;47.030;15.396;2023-05-01T04:41:19;97730.75;;;9.08;91.43
22580;BME280;11456;47.030;15.396;2023-05-01T04:43:47;97725.38;;;9.27;91.04
22580;BME280;11456;47.030;15.396;2023-05-01T04:46:16;97738.91;;;9.35;90.94
22580;BME280;11456;47.030;15.396;2023-05-01T04:48:43;97740.50;;;9.47;90.72
22580;BME280;11456;47.030;15.396;2023-05-01T04:51:09;97742.16;;;9.48;89.78
22580;BME280;11456;47.030;15.396;2023-05-01T04:53:36;97750.53;;;9.45;90.35
22580;BME280;11456;47.030;15.396;2023-05-01T04:56:05;97753.47;;;9.61;89.55
22580;BME280;11456;47.030;15.396;2023-05-01T04:58:32;97741.91;;;9.51;89.31
22580;BME280;11456;47.030;15.396;2023-05-01T05:01:04;97748.84;;;9.25;91.04
22580;BME280;11456;47.030;15.396;2023-05-01T05:03:31;97756.06;;;9.15;92.31
22580;BME280;11456;47.030;15.396;2023-05-01T05:05:58;97754.22;;;9.25;92.29
22580;BME280;11456;47.030;15.396;2023-05-01T05:08:24;97752.94;;;9.29;91.46
22580;BME280;11456;47.030;15.396;2023-05-01T05:10:59;97758.44;;;9.56;90.42
22580;BME280;11456;47.030;15.396;2023-05-01T05:13:45;97766.47;;;9.85;88.69
22580;BME280;11456;47.030;15.396;2023-05-01T05:16:13;97763.72;;;10.04;86.48
22580;BME280;11456;47.030;15.396;2023-05-01T05:18:40;97771.34;;;10.19;85.93
22580;BME280;11456;47.030;15.396;2023-05-01T05:21:07;97764.53;;;10.05;86.54
22580;BME280;11456;47.030;15.396;2023-05-01T05:23:41;97772.94;;;10.02;87.95
22580;BME280;11456;47.030;15.396;2023-05-01T05:26:07;97775.16;;;10.16;86.42
22580;BME280;11456;47.030;15.396;2023-05-01T05:28:34;97778.13;;;10.13;86.03
22580;BME280;11456;47.030;15.396;2023-05-01T05:31:01;97774.75;;;10.11;86.87
22580;BME280;11456;47.030;15.396;2023-05-01T05:33:27;97771.09;;;9.93;86.64
22580;BME280;11456;47.030;15.396;2023-05-01T05:35:54;97776.38;;;9.85;87.00
22580;BME280;11456;47.030;15.396;2023-05-01T05:38:26;97777.38;;;9.84;87.25
22580;BME280;11456;47.030;15.396;2023-05-01T05:40:55;97779.06;;;9.75;87.20
22580;BME280;11456;47.030;15.396;2023-05-01T05:43:23;97778.34;;;9.83;88.21
22580;BME280;11456;47.030;15.396;2023-05-01T05:45:59;97778.47;;;9.91;87.60
22580;BME280;11456;47.030;15.396;2023-05-01T05:48:27;97779.16;;;10.02;86.78
22580;BME280;11456;47.030;15.396;2023-05-01T05:50:53;97774.63;;;10.03;87.13
22580;BME280;11456;47.030;15.396;2023-05-01T05:53:20;97772.91;;;10.21;85.77
22580;BME280;11456;47.030;15.396;2023-05-01T05:55:50;97774.72;;;10.21;85.80
22580;BME280;11456;47.030;15.396;2023-05-01T05:58:17;97774.97;;;10.37;85.33
22580;BME280;11456;47.030;15.396;2023-05-01T06:00:48;97774.31;;;10.53;84.30
22580;BME280;11456;47.030;15.396;2023-05-01T06:03:15;97774.63;;;10.50;82.57
22580;BME280;11456;47.030;15.396;2023-05-01T06:05:43;97767.50;;;11.03;81.97
22580;BME280;11456;47.030;15.396;2023-05-01T06:08:10;97768.16;;;11.33;81.68
22580;BME280;11456;47.030;15.396;2023-05-01T06:10:43;97755.41;;;11.43;78.91
22580;BME280;11456;47.030;15.396;2023-05-01T06:13:10;97762.59;;;11.52;79.51
22580;BME280;11456;47.030;15.396;2023-05-01T06:15:44;97764.75;;;12.18;76.24
22580;BME280;11456;47.030;15.396;2023-05-01T06:18:11;97765.34;;;11.78;72.94
22580;BME280;11456;47.030;15.396;2023-05-01T06:20:38;97764.75;;;12.10;73.78
22580;BME280;11456;47.030;15.396;2023-05-01T06:23:05;97755.50;;;12.96;73.44
22580;BME280;11456;47.030;15.396;2023-05-01T06:25:41;97758.75;;;14.21;70.07
22580;BME280;11456;47.030;15.396;2023-05-01T06:28:08;97762.03;;;13.84;64.68
22580;BME280;11456;47.030;15.396;2023-05-01T06:30:35;97754.78;;;13.69;69.51
22580;BME280;11456;47.030;15.396;2023-05-01T06:33:01;97757.34;;;14.66;61.61
22580;BME280;11456;47.030;15.396;2023-05-01T06:35:28;97748.75;;;14.85;60.38
22580;BME280;11456;47.030;15.396;2023-05-01T06:37:55;97748.69;;;14.70;59.81
22580;BME280;11456;47.030;15.396;2023-05-01T06:40:21;97757.41;;;14.25;60.79
22580;BME280;11456;47.030;15.396;2023-05-01T06:42:48;97748.94;;;14.44;62.17
22580;BME280;11456;47.030;15.396;2023-05-01T06:45:14;97743.16;;;15.17;62.51
22580;BME280;11456;47.030;15.396;2023-05-01T06:47:41;97745.56;;;16.03;56.33
22580;BME280;11456;47.030;15.396;2023-05-01T06:50:08;97747.03;;;15.46;54.80
22580;BME280;11456;47.030;15.396;2023-05-01T06:52:35;97749.81;;;16.21;54.45
22580;BME280;11456;47.030;15.396;2023-05-01T06:55:01;97757.00;;;16.80;51.94
22580;BME280;11456;47.030;15.396;2023-05-01T06:57:29;97756.00;;;15.23;53.42
22580;BME280;11456;47.030;15.396;2023-05-01T06:59:55;97753.16;;;15.48;53.19
22580;BME280;11456;47.030;15.396;2023-05-01T07:02:22;97744.88;;;16.54;51.66
22580;BME280;11456;47.030;15.396;2023-05-01T07:04:49;97741.38;;;16.45;49.99
22580;BME280;11456;47.030;15.396;2023-05-01T07:07:15;97747.41;;;16.55;50.57
22580;BME280;11456;47.030;15.396;2023-05-01T07:09:42;97741.53;;;17.17;48.67
22580;BME280;11456;47.030;15.396;2023-05-01T07:12:08;97746.41;;;17.79;45.83
22580;BME280;11456;47.030;15.396;2023-05-01T07:14:35;97746.53;;;17.92;45.15
22580;BME280;11456;47.030;15.396;2023-05-01T07:17:02;97751.78;;;18.21;42.53
22580;BME280;11456;47.030;15.396;2023-05-01T07:19:28;97755.75;;;17.91;43.07
22580;BME280;11456;47.030;15.396;2023-05-01T07:21:55;97754.09;;;18.52;42.39
22580;BME280;11456;47.030;15.396;2023-05-01T07:24:22;97753.47;;;18.78;41.72
22580;BME280;11456;47.030;15.396;2023-05-01T07:26:48;97757.28;;;18.90;42.27
22580;BME280;11456;47.030;15.396;2023-05-01T07:29:14;97757.16;;;18.08;43.83
22580;BME280;11456;47.030;15.396;2023-05-01T07:31:42;97749.38;;;18.33;41.06
22580;BME280;11456;47.030;15.396;2023-05-01T07:34:08;97740.78;;;18.08;41.81
22580;BME280;11456;47.030;15.396;2023-05-01T07:36:35;97740.88;;;18.83;42.11
22580;BME280;11456;47.030;15.396;2023-05-01T07:39:02;97744.19;;;19.13;39.52
22580;BME280;11456;47.030;15.396;2023-05-01T07:41:29;97752.00;;;18.75;42.33
22580;BME280;11456;47.030;15.396;2023-05-01T07:43:59;97745.91;;;18.80;42.63
22580;BME280;11456;47.030;15.396;2023-05-01T07:46:26;97739.81;;;19.26;41.56
22580;BME280;11456;47.030;15.396;2023-05-01T07:48:52;97733.78;;;18.89;40.54
22580;BME280;11456;47.030;15.396;2023-05-01T07:51:19;97733.28;;;18.72;41.90
22580;BME280;11456;47.030;15.396;2023-05-01T07:53:46;97734.31;;;17.88;42.83
22580;BME280;11456;47.030;15.396;2023-05-01T07:56:13;97735.50;;;18.97;42.15
22580;BME280;11456;47.030;15.396;2023-05-01T07:58:41;97737.69;;;19.28;40.86
22580;BME280;11456;47.030;15.396;2023-05-01T08:01:09;97734.25;;;19.53;39.83
22580;BME280;11456;47.030;15.396;2023-05-01T08:03:35;97740.41;;;18.67;40.05
22580;BME280;11456;47.030;15.396;2023-05-01T08:06:02;97745.22;;;18.43;44.21
22580;BME280;11456;47.030;15.396;2023-05-01T08:08:29;97738.97;;;19.25;41.01
22580;BME280;11456;47.030;15.396;2023-05-01T08:10:55;97740.66;;;18.51;43.78
22580;BME280;11456;47.030;15.396;2023-05-01T08:13:22;97743.94;;;19.08;41.15
22580;BME280;11456;47.030;15.396;2023-05-01T08:15:48;97748.91;;;18.92;42.17
22580;BME280;11456;47.030;15.396;2023-05-01T08:18:15;97741.59;;;18.58;41.22
22580;BME280;11456;47.030;15.396;2023-05-01T08:20:46;97738.75;;;17.89;43.84
22580;BME280;11456;47.030;15.396;2023-05-01T08:23:16;97733.94;;;19.29;41.00
22580;BME280;11456;47.030;15.396;2023-05-01T08:25:43;97728.44;;;19.15;40.58
22580;BME280;11456;47.030;15.396;2023-05-01T08:28:16;97717.25;;;19.65;40.67
22580;BME280;11456;47.030;15.396;2023-05-01T08:30:43;97718.34;;;19.96;39.36
22580;BME280;11456;47.030;15.396;2023-05-01T08:33:09;97714.72;;;19.63;40.22
22580;BME280;11456;47.030;15.396;2023-05-01T08:35:36;97730.97;;;17.86;42.77
22580;BME280;11456;47.030;15.396;2023-05-01T08:38:03;97720.88;;;19.17;42.14
22580;BME280;11456;47.030;15.396;2023-05-01T08:40:30;97726.41;;;18.83;44.17
22580;BME280;11456;47.030;15.396;2023-05-01T08:42:57;97728.59;;;18.60;43.11
22580;BME280;11456;47.030;15.396;2023-05-01T08:45:25;97720.19;;;19.63;40.74
22580;BME280;11456;47.030;15.396;2023-05-01T08:47:53;97718.53;;;19.88;39.70
22580;BME280;11456;47.030;15.396;2023-05-01T08:50:20;97721.97;;;19.36;41.34
22580;BME280;11456;47.030;15.396;2023-05-01T08:52:49;97726.72;;;19.08;41.03
22580;BME280;11456;47.030;15.396;2023-05-01T08:55:16;97710.31;;;20.54;39.43
22580;BME280;11456;47.030;15.396;2023-05-01T08:57:44;97718.09;;;20.18;39.44
22580;BME280;11456;47.030;15.396;2023-05-01T09:00:20;97723.97;;;19.75;40.51
22580;BME280;11456;47.030;15.396;2023-05-01T09:02:48;97721.03;;;19.57;39.54
22580;BME280;11456;47.030;15.396;2023-05-01T09:05:19;97720.97;;;19.44;40.26
22580;BME280;11456;47.030;15.396;2023-05-01T09:07:46;97722.41;;;18.51;41.54
22580;BME280;11456;47.030;15.396;2023-05-01T09:10:14;97717.47;;;19.02;40.99
22580;BME280;11456;47.030;15.396;2023-05-01T09:12:41;97721.53;;;18.72;44.44
22580;BME280;11456;47.030;15.396;2023-05-01T09:15:10;97726.34;;;17.86;44.04
22580;BME280;11456;47.030;15.396;2023-05-01T09:17:37;97726.25;;;18.57;42.68
22580;BME280;11456;47.030;15.396;2023-05-01T09:20:03;97720.38;;;19.48;41.07
22580;BME280;11456;47.030;15.396;2023-05-01T09:22:33;97722.16;;;18.39;42.29
22580;BME280;11456;47.030;15.396;2023-05-01T09:25:00;97722.78;;;18.41;42.56
22580;BME280;11456;47.030;15.396;2023-05-01T09:27:28;97711.41;;;18.66;42.03
22580;BME280;11456;47.030;15.396;2023-05-01T09:29:55;97720.34;;;18.25;44.11
22580;BME280;11456;47.030;15.396;2023-05-01T09:32:23;97712.59;;;18.91;41.39
22580;BME280;11456;47.030;15.396;2023-05-01T09:35:08;97713.47;;;19.72;40.85
22580;BME280;11456;47.030;15.396;2023-05-01T09:37:35;97717.16;;;19.32;42.37
22580;BME280;11456;47.030;15.396;2023-05-01T09:42:30;97721.34;;;18.46;43.14
22580;BME280;11456;47.030;15.396;2023-05-01T09:44:59;97721.25;;;18.32;43.20
22580;BME280;11456;47.030;15.396;2023-05-01T09:47:27;97720.50;;;19.40;42.09
22580;BME280;11456;47.030;15.396;2023-05-01T09:49:55;97709.06;;;19.78;39.69
22580;BME280;11456;47.030;15.396;2023-05-01T09:52:27;97709.88;;;20.31;38.52
22580;BME280;11456;47.030;15.396;2023-05-01T09:55:13;97710.59;;;21.42;37.53
22580;BME280;11456;47.030;15.396;2023-05-01T09:57:39;97708.47;;;21.50;38.37
22580;BME280;11456;47.030;15.396;2023-05-01T10:00:11;97706.03;;;21.92;38.97
22580;BME280;11456;47.030;15.396;2023-05-01T10:02:40;97709.34;;;21.44;37.46
22580;BME280;11456;47.030;15.396;2023-05-01T10:05:08;97706.50;;;21.13;36.69
22580;BME280;11456;47.030;15.396;2023-05-01T10:07:35;97703.31;;;20.71;39.45
22580;BME280;11456;47.030;15.396;2023-05-01T10:10:20;97706.28;;;20.50;39.71
22580;BME280;11456;47.030;15.396;2023-05-01T10:12:47;97707.59;;;20.01;38.86
22580;BME280;11456;47.030;15.396;2023-05-01T10:15:14;97698.66;;;20.78;38.30
22580;BME280;11456;47.030;15.396;2023-05-01T10:17:51;97704.50;;;20.89;38.11
22580;BME280;11456;47.030;15.396;2023-05-01T10:20:19;97687.81;;;20.39;37.68
22580;BME280;11456;47.030;15.396;2023-05-01T10:22:46;97695.59;;;20.29;37.24
22580;BME280;11456;47.030;15.396;2023-05-01T10:25:14;97708.84;;;20.12;38.14
22580;BME280;11456;47.030;15.396;2023-05-01T10:27:41;97700.84;;;20.04;38.34
22580;BME280;11456;47.030;15.396;2023-05-01T10:30:08;97695.38;;;21.08;35.93
22580;BME280;11456;47.030;15.396;2023-05-01T10:32:35;97689.03;;;20.50;36.53
22580;BME280;11456;47.030;15.396;2023-05-01T10:35:08;97687.34;;;20.55;37.86
22580;BME280;11456;47.030;15.396;2023-05-01T10:40:42;97697.56;;;18.61;41.33
22580;BME280;11456;47.030;15.396;2023-05-01T10:45:33;97697.06;;;19.85;38.60
22580;BME280;11456;47.030;15.396;2023-05-01T10:48:01;97692.03;;;20.22;38.20
22580;BME280;11456;47.030;15.396;2023-05-01T10:50:28;97686.59;;;21.44;36.31
22580;BME280;11456;47.030;15.396;2023-05-01T10:55:40;97678.56;;;20.14;37.66
22580;BME280;11456;47.030;15.396;2023-05-01T10:58:10;97668.03;;;20.24;38.24
22580;BME280;11456;47.030;15.396;2023-05-01T11:00:37;97669.94;;;20.10;37.43
22580;BME280;11456;47.030;15.396;2023-05-01T11:08:35;97650.97;;;19.30;38.58
22580;BME280;11456;47.030;15.396;2023-05-01T11:13:55;97644.78;;;20.72;37.79
22580;BME280;11456;47.030;15.396;2023-05-01T11:18:57;97632.50;;;20.81;37.24
22580;BME280;11456;47.030;15.396;2023-05-01T11:21:33;97636.47;;;20.41;37.71
22580;BME280;11456;47.030;15.396;2023-05-01T11:24:00;97640.59;;;20.63;36.96
22580;BME280;11456;47.030;15.396;2023-05-01T11:26:27;97629.81;;;19.71;39.62
22580;BME280;11456;47.030;15.396;2023-05-01T11:28:57;97625.00;;;20.70;37.76
22580;BME280;11456;47.030;15.396;2023-05-01T11:31:24;97627.75;;;21.08;36.80
22580;BME280;11456;47.030;15.396;2023-05-01T11:33:51;97623.25;;;20.12;37.29
22580;BME280;11456;47.030;15.396;2023-05-01T11:36:21;97611.59;;;20.49;37.94
22580;BME280;11456;47.030;15.396;2023-05-01T11:41:20;97596.75;;;20.76;36.21
22580;BME280;11456;47.030;15.396;2023-05-01T11:43:54;97599.91;;;20.16;37.02
22580;BME280;11456;47.030;15.396;2023-05-01T11:48:54;97597.53;;;22.46;34.45
22580;BME280;11456;47.030;15.396;2023-05-01T11:51:21;97597.94;;;22.06;34.96
22580;BME280;11456;47.030;15.396;2023-05-01T11:56:25;97589.75;;;23.50;34.05
22580;BME280;11456;47.030;15.396;2023-05-01T11:58:53;97594.22;;;22.73;33.56
22580;BME280;11456;47.030;15.396;2023-05-01T12:01:20;97585.31;;;22.78;33.94
22580;BME280;11456;47.030;15.396;2023-05-01T12:03:46;97601.53;;;21.82;35.22
22580;BME280;11456;47.030;15.396;2023-05-01T12:06:13;97598.09;;;22.11;34.34
22580;BME280;11456;47.030;15.396;2023-05-01T12:08:41;97592.47;;;21.56;34.17
22580;BME280;11456;47.030;15.396;2023-05-01T12:11:08;97590.50;;;21.88;34.90
22580;BME280;11456;47.030;15.396;2023-05-01T12:13:34;97586.81;;;22.56;34.67
22580;BME280;11456;47.030;15.396;2023-05-01T12:16:01;97593.16;;;22.56;33.45
22580;BME280;11456;47.030;15.396;2023-05-01T12:18:29;97586.22;;;22.17;36.04
22580;BME280;11456;47.030;15.396;2023-05-01T12:20:56;97585.31;;;22.42;33.91
22580;BME280;11456;47.030;15.396;2023-05-01T12:23:30;97580.25;;;21.52;34.27
22580;BME280;11456;47.030;15.396;2023-05-01T12:25:57;97585.94;;;21.26;35.14
22580;BME280;11456;47.030;15.396;2023-05-01T12:28:24;97576.03;;;19.58;38.67
22580;BME280;11456;47.030;15.396;2023-05-01T12:30:52;97566.75;;;19.53;38.60
22580;BME280;11456;47.030;15.396;2023-05-01T12:33:22;97563.22;;;20.43;38.12
22580;BME280;11456;47.030;15.396;2023-05-01T12:35:49;97559.72;;;20.74;38.15
22580;BME280;11456;47.030;15.396;2023-05-01T12:38:17;97565.28;;;19.44;38.11
22580;BME280;11456;47.030;15.396;2023-05-01T12:41:05;97565.25;;;20.03;37.71
22580;BME280;11456;47.030;15.396;2023-05-01T12:43:35;97554.53;;;19.09;39.19
22580;BME280;11456;47.030;15.396;2023-05-01T12:46:03;97556.22;;;19.10;40.78
22580;BME280;11456;47.030;15.396;2023-05-01T12:48:30;97565.06;;;19.12;40.49
22580;BME280;11456;47.030;15.396;2023-05-01T12:50:56;97561.25;;;18.87;40.56
22580;BME280;11456;47.030;15.396;2023-05-01T12:53:24;97562.91;;;19.01;40.96
22580;BME280;11456;47.030;15.396;2023-05-01T12:55:52;97556.03;;;19.38;39.48
22580;BME280;11456;47.030;15.396;2023-05-01T12:58:18;97556.03;;;19.45;39.53
22580;BME280;11456;47.030;15.396;2023-05-01T13:00:49;97552.84;;;19.08;40.87
22580;BME280;11456;47.030;15.396;2023-05-01T13:03:21;97554.56;;;19.22;40.97
22580;BME280;11456;47.030;15.396;2023-05-01T13:08:24;97554.53;;;18.96;41.93
22580;BME280;11456;47.030;15.396;2023-05-01T13:10:53;97540.03;;;18.89;42.21
22580;BME280;11456;47.030;15.396;2023-05-01T13:13:26;97545.28;;;18.91;41.32
22580;BME280;11456;47.030;15.396;2023-05-01T13:15:53;97538.56;;;18.93;42.19
22580;BME280;11456;47.030;15.396;2023-05-01T13:18:20;97528.91;;;18.84;42.25
22580;BME280;11456;47.030;15.396;2023-05-01T13:20:46;97522.59;;;19.82;39.72
22580;BME280;11456;47.030;15.396;2023-05-01T13:23:13;97519.09;;;20.33;39.24
22580;BME280;11456;47.030;15.396;2023-05-01T13:25:40;97518.75;;;20.03;40.19
22580;BME280;11456;47.030;15.396;2023-05-01T13:28:07;97518.84;;;19.24;40.89
22580;BME280;11456;47.030;15.396;2023-05-01T13:30:34;97517.59;;;19.00;42.15
22580;BME280;11456;47.030;15.396;2023-05-01T13:33:02;97518.84;;;19.11;41.88
22580;BME280;11456;47.030;15.396;2023-05-01T13:35:30;97518.41;;;19.20;41.63
22580;BME280;11456;47.030;15.396;2023-05-01T13:37:57;97511.72;;;19.49;40.96
22580;BME280;11456;47.030;15.396;2023-05-01T13:40:23;97514.00;;;19.59;40.55
22580;BME280;11456;47.030;15.396;2023-05-01T13:42:51;97510.09;;;20.13;39.62
22580;BME280;11456;47.030;15.396;2023-05-01T13:45:19;97509.16;;;19.74;39.42
22580;BME280;11456;47.030;15.396;2023-05-01T13:47:47;97510.03;;;19.48;40.52
22580;BME280;11456;47.030;15.396;2023-05-01T13:50:14;97497.59;;;20.74;38.95